Main page
METAR-TAF:

METAR-TAF

Airports :

Nancy-Essey Airport

Nancy, France

latitude: 48-41N, longitude: 006-13E, elevation: 225 m

Current weather observation

The report was made 54 minutes ago, at 05:00 UTC
Wind 5 kt from the North, varying between North/Northwest and Northeast
Temperature 15°C
Humidity 94%
Pressure 1018 hPa
Visibility 10 km or more
thunderstorm in vicinity,

METAR: LFSN 200500Z AUTO 01005KT 330V050 9999 VCTS BKN009/// BKN018/// OVC058/// //////CB 15/14 Q1018

Time: 07:54 (05:54 UTC)


TAF: missing

Weather observations and forecasts of more than 4000 airports (METAR and TAF reports).

The available stations are represented by yellow and red dots on the map.

Hover mouse over dot to see the name of the station.

Then click to see weather observations and forecasts.

To change the map : click on the green buttons with a black cross to zoom in, on the green button with a dash to zoom out, or on the green arrows for adjacent maps.


METAR-TAF: